sensor_id;sensor_type;location;lat;lon;timestamp;pressure;altitude;pressure_sealevel;temperature;humidity
45937;BME280;31649;46.510;6.498;2023-04-06T05:55:21;95743.03;;;1.92;53.21
45937;BME280;31649;46.510;6.498;2023-04-06T05:57:47;95740.50;;;1.78;53.69
45937;BME280;31649;46.510;6.498;2023-04-06T06:00:13;95744.59;;;1.80;54.28
45937;BME280;31649;46.510;6.498;2023-04-06T06:02:39;95747.03;;;1.96;54.03
45937;BME280;31649;46.510;6.498;2023-04-06T06:05:08;95746.16;;;2.11;53.71
45937;BME280;31649;46.510;6.498;2023-04-06T06:07:35;95745.88;;;2.15;53.60
45937;BME280;31649;46.510;6.498;2023-04-06T06:10:01;95744.75;;;2.32;53.50
45937;BME280;31649;46.510;6.498;2023-04-06T06:12:27;95753.41;;;2.31;53.83
45937;BME280;31649;46.510;6.498;2023-04-06T06:14:53;95748.19;;;2.46;53.31
45937;BME280;31649;46.510;6.498;2023-04-06T06:17:19;95751.38;;;2.50;53.35
45937;BME280;31649;46.510;6.498;2023-04-06T06:19:45;95752.38;;;2.47;53.45
45937;BME280;31649;46.510;6.498;2023-04-06T06:22:11;95749.03;;;2.47;53.49
45937;BME280;31649;46.510;6.498;2023-04-06T06:24:36;95752.09;;;2.52;53.75
45937;BME280;31649;46.510;6.498;2023-04-06T06:27:02;95749.94;;;2.59;53.61
45937;BME280;31649;46.510;6.498;2023-04-06T06:29:29;95747.09;;;2.63;53.37
45937;BME280;31649;46.510;6.498;2023-04-06T06:31:54;95742.34;;;2.70;53.25
45937;BME280;31649;46.510;6.498;2023-04-06T06:34:20;95744.44;;;2.78;53.31
45937;BME280;31649;46.510;6.498;2023-04-06T06:36:46;95743.91;;;2.86;53.53
45937;BME280;31649;46.510;6.498;2023-04-06T06:39:12;95745.84;;;2.95;53.09
45937;BME280;31649;46.510;6.498;2023-04-06T06:41:37;95739.06;;;3.07;53.06
45937;BME280;31649;46.510;6.498;2023-04-06T06:44:03;95741.84;;;3.17;52.73
45937;BME280;31649;46.510;6.498;2023-04-06T06:46:29;95737.09;;;3.24;52.95
45937;BME280;31649;46.510;6.498;2023-04-06T06:48:55;95741.59;;;3.33;52.67
45937;BME280;31649;46.510;6.498;2023-04-06T06:51:21;95742.91;;;3.39;52.85
45937;BME280;31649;46.510;6.498;2023-04-06T06:53:47;95745.06;;;3.45;52.69
45937;BME280;31649;46.510;6.498;2023-04-06T06:56:13;95741.16;;;3.53;52.65
45937;BME280;31649;46.510;6.498;2023-04-06T06:58:39;95744.13;;;3.59;52.95
45937;BME280;31649;46.510;6.498;2023-04-06T07:01:04;95731.75;;;3.65;52.87
45937;BME280;31649;46.510;6.498;2023-04-06T07:03:30;95740.78;;;3.70;52.83
45937;BME280;31649;46.510;6.498;2023-04-06T07:05:56;95742.22;;;3.75;52.62
45937;BME280;31649;46.510;6.498;2023-04-06T07:08:22;95744.34;;;3.81;52.77
45937;BME280;31649;46.510;6.498;2023-04-06T07:10:51;95739.81;;;3.85;52.95
45937;BME280;31649;46.510;6.498;2023-04-06T07:13:23;95742.16;;;3.88;52.91
45937;BME280;31649;46.510;6.498;2023-04-06T07:15:49;95744.00;;;3.99;53.09
45937;BME280;31649;46.510;6.498;2023-04-06T07:18:16;95732.31;;;4.06;52.88
45937;BME280;31649;46.510;6.498;2023-04-06T07:20:42;95745.81;;;4.10;52.74
45937;BME280;31649;46.510;6.498;2023-04-06T07:23:07;95739.50;;;4.14;52.87
45937;BME280;31649;46.510;6.498;2023-04-06T07:25:33;95734.22;;;4.15;52.56
45937;BME280;31649;46.510;6.498;2023-04-06T07:27:59;95737.28;;;4.21;52.91
45937;BME280;31649;46.510;6.498;2023-04-06T07:30:24;95740.25;;;4.27;52.54
45937;BME280;31649;46.510;6.498;2023-04-06T07:32:53;95743.53;;;4.29;52.89
45937;BME280;31649;46.510;6.498;2023-04-06T07:35:21;95744.13;;;4.33;52.85
45937;BME280;31649;46.510;6.498;2023-04-06T07:37:46;95745.44;;;4.39;52.65
45937;BME280;31649;46.510;6.498;2023-04-06T07:40:12;95747.56;;;4.45;52.70
45937;BME280;31649;46.510;6.498;2023-04-06T07:42:38;95749.00;;;4.49;52.73
45937;BME280;31649;46.510;6.498;2023-04-06T07:45:04;95739.03;;;4.56;52.68
45937;BME280;31649;46.510;6.498;2023-04-06T07:47:29;95744.81;;;4.60;52.42
45937;BME280;31649;46.510;6.498;2023-04-06T07:49:55;95743.16;;;4.59;52.55
45937;BME280;31649;46.510;6.498;2023-04-06T07:52:23;95754.66;;;4.66;52.59
45937;BME280;31649;46.510;6.498;2023-04-06T07:54:49;95750.78;;;4.72;52.47
45937;BME280;31649;46.510;6.498;2023-04-06T07:57:15;95746.59;;;4.82;52.45
45937;BME280;31649;46.510;6.498;2023-04-06T07:59:40;95744.25;;;4.91;51.58
45937;BME280;31649;46.510;6.498;2023-04-06T08:02:06;95749.09;;;4.95;52.15
45937;BME280;31649;46.510;6.498;2023-04-06T08:04:32;95753.03;;;4.88;50.78
45937;BME280;31649;46.510;6.498;2023-04-06T08:06:57;95743.44;;;4.90;50.56
45937;BME280;31649;46.510;6.498;2023-04-06T08:09:23;95747.78;;;5.01;50.05
45937;BME280;31649;46.510;6.498;2023-04-06T08:11:49;95747.91;;;4.99;49.98
45937;BME280;31649;46.510;6.498;2023-04-06T08:14:15;95745.22;;;5.01;50.04
45937;BME280;31649;46.510;6.498;2023-04-06T08:16:41;95754.94;;;5.09;50.19
45937;BME280;31649;46.510;6.498;2023-04-06T08:19:07;95743.66;;;4.75;48.46
45937;BME280;31649;46.510;6.498;2023-04-06T08:21:35;95743.69;;;4.87;48.19
45937;BME280;31649;46.510;6.498;2023-04-06T08:24:01;95744.88;;;5.06;47.17
45937;BME280;31649;46.510;6.498;2023-04-06T08:26:26;95731.13;;;5.17;48.27
45937;BME280;31649;46.510;6.498;2023-04-06T08:28:52;95731.25;;;5.15;47.85
45937;BME280;31649;46.510;6.498;2023-04-06T08:31:18;95729.63;;;5.26;47.81
45937;BME280;31649;46.510;6.498;2023-04-06T08:33:43;95733.84;;;5.27;47.73
45937;BME280;31649;46.510;6.498;2023-04-06T08:36:13;95734.66;;;5.04;48.15
45937;BME280;31649;46.510;6.498;2023-04-06T08:38:40;95735.72;;;5.02;47.68
45937;BME280;31649;46.510;6.498;2023-04-06T08:41:07;95730.75;;;4.75;46.43
45937;BME280;31649;46.510;6.498;2023-04-06T08:43:37;95729.13;;;4.86;47.53
45937;BME280;31649;46.510;6.498;2023-04-06T08:46:07;95743.22;;;4.93;47.52
45937;BME280;31649;46.510;6.498;2023-04-06T08:48:34;95728.31;;;5.08;46.98
45937;BME280;31649;46.510;6.498;2023-04-06T08:51:00;95741.00;;;5.11;46.70
45937;BME280;31649;46.510;6.498;2023-04-06T08:53:26;95733.97;;;5.14;45.12
45937;BME280;31649;46.510;6.498;2023-04-06T08:55:52;95743.00;;;5.31;46.14
45937;BME280;31649;46.510;6.498;2023-04-06T08:58:18;95732.44;;;5.34;46.56
45937;BME280;31649;46.510;6.498;2023-04-06T09:00:44;95733.13;;;5.36;47.03
45937;BME280;31649;46.510;6.498;2023-04-06T09:03:12;95742.28;;;5.40;47.57
45937;BME280;31649;46.510;6.498;2023-04-06T09:05:38;95739.56;;;5.42;48.03
45937;BME280;31649;46.510;6.498;2023-04-06T09:08:04;95743.22;;;5.39;48.09
45937;BME280;31649;46.510;6.498;2023-04-06T09:10:29;95742.53;;;5.26;48.45
45937;BME280;31649;46.510;6.498;2023-04-06T09:13:05;95738.78;;;5.18;48.71
45937;BME280;31649;46.510;6.498;2023-04-06T09:15:31;95740.28;;;5.21;49.17
45937;BME280;31649;46.510;6.498;2023-04-06T09:17:56;95741.34;;;5.30;49.06
45937;BME280;31649;46.510;6.498;2023-04-06T09:20:26;95735.13;;;5.32;48.89
45937;BME280;31649;46.510;6.498;2023-04-06T09:22:53;95737.50;;;5.24;49.38
45937;BME280;31649;46.510;6.498;2023-04-06T09:25:21;95732.53;;;5.21;49.39
45937;BME280;31649;46.510;6.498;2023-04-06T09:27:48;95735.25;;;5.19;49.53
45937;BME280;31649;46.510;6.498;2023-04-06T09:30:23;95729.97;;;5.21;49.63
45937;BME280;31649;46.510;6.498;2023-04-06T09:32:52;95737.13;;;5.29;49.54
45937;BME280;31649;46.510;6.498;2023-04-06T09:35:19;95728.09;;;5.34;49.37
45937;BME280;31649;46.510;6.498;2023-04-06T09:37:46;95732.09;;;5.39;49.42
45937;BME280;31649;46.510;6.498;2023-04-06T09:40:13;95726.94;;;5.39;49.40
45937;BME280;31649;46.510;6.498;2023-04-06T09:42:42;95726.09;;;5.38;49.49
45937;BME280;31649;46.510;6.498;2023-04-06T09:45:10;95723.28;;;5.07;47.83
45937;BME280;31649;46.510;6.498;2023-04-06T09:47:36;95728.28;;;4.62;47.61
45937;BME280;31649;46.510;6.498;2023-04-06T09:50:03;95725.16;;;4.34;45.85
45937;BME280;31649;46.510;6.498;2023-04-06T09:52:33;95727.88;;;4.08;45.41
45937;BME280;31649;46.510;6.498;2023-04-06T09:55:04;95719.81;;;4.49;44.16
45937;BME280;31649;46.510;6.498;2023-04-06T10:00:29;95710.66;;;5.04;41.52
45937;BME280;31649;46.510;6.498;2023-04-06T10:05:54;95705.72;;;5.23;44.30
45937;BME280;31649;46.510;6.498;2023-04-06T10:08:22;95705.41;;;5.61;43.39
45937;BME280;31649;46.510;6.498;2023-04-06T10:10:50;95710.50;;;5.40;43.38
45937;BME280;31649;46.510;6.498;2023-04-06T10:13:18;95711.34;;;5.06;43.48
45937;BME280;31649;46.510;6.498;2023-04-06T10:15:44;95715.44;;;4.97;42.79
45937;BME280;31649;46.510;6.498;2023-04-06T10:18:10;95711.13;;;5.20;42.77
45937;BME280;31649;46.510;6.498;2023-04-06T10:23:31;95710.84;;;5.58;40.84
45937;BME280;31649;46.510;6.498;2023-04-06T10:26:00;95712.84;;;5.31;41.48
45937;BME280;31649;46.510;6.498;2023-04-06T10:28:31;95707.78;;;5.53;42.18
45937;BME280;31649;46.510;6.498;2023-04-06T10:31:01;95711.78;;;5.45;43.70
45937;BME280;31649;46.510;6.498;2023-04-06T10:33:27;95709.69;;;5.28;42.73
45937;BME280;31649;46.510;6.498;2023-04-06T10:35:53;95700.09;;;5.18;42.17
45937;BME280;31649;46.510;6.498;2023-04-06T10:38:21;95701.78;;;5.52;41.95
45937;BME280;31649;46.510;6.498;2023-04-06T10:40:48;95696.28;;;5.57;40.80
45937;BME280;31649;46.510;6.498;2023-04-06T10:43:23;95693.91;;;5.77;41.35
45937;BME280;31649;46.510;6.498;2023-04-06T10:45:55;95692.56;;;5.50;41.70
45937;BME280;31649;46.510;6.498;2023-04-06T10:48:21;95685.34;;;5.65;41.67
45937;BME280;31649;46.510;6.498;2023-04-06T10:50:52;95680.19;;;5.65;41.20
45937;BME280;31649;46.510;6.498;2023-04-06T10:53:25;95689.63;;;5.31;39.90
45937;BME280;31649;46.510;6.498;2023-04-06T10:55:54;95689.56;;;5.10;40.29
45937;BME280;31649;46.510;6.498;2023-04-06T10:58:24;95690.97;;;5.14;40.93
45937;BME280;31649;46.510;6.498;2023-04-06T11:00:51;95679.56;;;5.17;39.69
45937;BME280;31649;46.510;6.498;2023-04-06T11:03:18;95680.00;;;5.33;40.25
45937;BME280;31649;46.510;6.498;2023-04-06T11:05:48;95681.16;;;5.52;41.54
45937;BME280;31649;46.510;6.498;2023-04-06T11:08:27;95677.44;;;5.45;41.57
45937;BME280;31649;46.510;6.498;2023-04-06T11:11:10;95679.09;;;5.23;43.92
45937;BME280;31649;46.510;6.498;2023-04-06T11:13:54;95673.97;;;5.11;42.68
45937;BME280;31649;46.510;6.498;2023-04-06T11:16:22;95672.66;;;5.17;42.22
45937;BME280;31649;46.510;6.498;2023-04-06T11:18:59;95672.41;;;5.43;41.63
45937;BME280;31649;46.510;6.498;2023-04-06T11:21:48;95665.19;;;4.91;40.53
45937;BME280;31649;46.510;6.498;2023-04-06T11:24:19;95666.06;;;5.36;40.63
45937;BME280;31649;46.510;6.498;2023-04-06T11:29:15;95665.94;;;5.38;43.02
45937;BME280;31649;46.510;6.498;2023-04-06T11:31:42;95662.81;;;5.22;42.23
45937;BME280;31649;46.510;6.498;2023-04-06T11:34:11;95665.75;;;5.06;42.87
45937;BME280;31649;46.510;6.498;2023-04-06T11:36:39;95658.97;;;5.05;43.18
45937;BME280;31649;46.510;6.498;2023-04-06T11:39:06;95658.63;;;5.10;43.03
45937;BME280;31649;46.510;6.498;2023-04-06T11:41:32;95662.09;;;5.32;42.41
45937;BME280;31649;46.510;6.498;2023-04-06T11:44:01;95664.66;;;5.43;43.32
45937;BME280;31649;46.510;6.498;2023-04-06T11:46:28;95651.31;;;5.27;44.62
45937;BME280;31649;46.510;6.498;2023-04-06T11:49:01;95664.00;;;5.07;42.50
45937;BME280;31649;46.510;6.498;2023-04-06T11:51:27;95657.56;;;5.01;43.06
45937;BME280;31649;46.510;6.498;2023-04-06T11:53:54;95653.44;;;5.21;42.95
45937;BME280;31649;46.510;6.498;2023-04-06T11:56:30;95653.38;;;5.44;44.06
45937;BME280;31649;46.510;6.498;2023-04-06T11:58:57;95649.97;;;5.44;43.64
45937;BME280;31649;46.510;6.498;2023-04-06T12:01:25;95656.75;;;5.56;42.23
45937;BME280;31649;46.510;6.498;2023-04-06T12:03:52;95632.38;;;5.49;42.44
45937;BME280;31649;46.510;6.498;2023-04-06T12:06:17;95637.91;;;5.44;43.82
